createdAt,value
2022-12-23T00:04:08.866Z,100204.72
2022-12-23T00:09:11.015Z,100210.94
2022-12-23T00:14:31.857Z,100207.53
2022-12-23T00:19:33.995Z,100209.44
2022-12-23T00:24:36.142Z,100207.22
2022-12-23T00:29:38.263Z,100210.59
2022-12-23T00:34:40.437Z,100213.16
2022-12-23T00:40:06.196Z,100212.59
2022-12-23T00:45:18.349Z,100207.53
2022-12-23T00:50:20.494Z,100199.41
2022-12-23T00:55:22.976Z,100193.66
2022-12-23T01:00:45.307Z,100198.94
2022-12-23T01:05:47.509Z,100195.44
2022-12-23T01:10:49.836Z,100198.41
2022-12-23T01:15:52.009Z,100191.56
2022-12-23T01:20:54.153Z,100193.47
2022-12-23T01:26:00.834Z,100192.78
2022-12-23T01:31:05.223Z,100178.69
2022-12-23T01:36:09.501Z,100186.06
2022-12-23T01:41:42.226Z,100178.19
2022-12-23T01:46:44.432Z,100169.94
2022-12-23T01:51:46.682Z,100163.44
2022-12-23T01:56:48.832Z,100159.34
2022-12-23T02:02:09.631Z,100148.69
2022-12-23T02:07:32.020Z,100150.53
2022-12-23T02:13:07.574Z,100143.09
2022-12-23T02:18:09.709Z,100141.63
2022-12-23T02:23:46.208Z,100134.28
2022-12-23T02:29:06.633Z,100139.25
2022-12-23T02:34:39.235Z,100141.03
2022-12-23T02:39:59.627Z,100134.72
2022-12-23T02:45:23.468Z,100131.09
2022-12-23T02:50:32.776Z,100132.41
2022-12-23T02:55:39.036Z,100131.31
2022-12-23T03:00:43.131Z,100121.56
2022-12-23T03:05:47.772Z,100128.78
2022-12-23T03:11:07.400Z,100143.41
2022-12-23T03:16:20.961Z,100141.66
2022-12-23T03:21:35.944Z,100138.44
2022-12-23T03:27:12.852Z,100140.19
2022-12-23T03:32:17.211Z,100124.31
2022-12-23T03:37:22.652Z,100127.09
2022-12-23T03:42:35.900Z,100117.53
2022-12-23T03:47:48.559Z,100122.09
2022-12-23T03:53:15.271Z,100113.84
2022-12-23T03:58:29.808Z,100114.91
2022-12-23T04:03:40.294Z,100119.19
2022-12-23T04:08:44.631Z,100122.72
2022-12-23T04:13:48.577Z,100107.12
2022-12-23T04:18:51.028Z,100108.13
2022-12-23T04:23:53.174Z,100100.03
2022-12-23T04:28:55.360Z,100096.34
2022-12-23T04:33:57.764Z,100094.25
2022-12-23T04:38:59.954Z,100096.91
2022-12-23T04:44:02.108Z,100103.03
2022-12-23T04:49:04.261Z,100104.91
2022-12-23T04:54:06.377Z,100115.97
2022-12-23T04:59:09.799Z,100115.53
2022-12-23T05:04:12.118Z,100109.69
2022-12-23T05:09:14.336Z,100106.91
2022-12-23T05:14:16.595Z,100112.16
2022-12-23T05:19:18.723Z,100123.94
2022-12-23T05:24:20.869Z,100121.28
2022-12-23T05:29:22.996Z,100123.34
2022-12-23T05:34:25.177Z,100116.66
2022-12-23T05:39:27.323Z,100112.44
2022-12-23T05:44:29.607Z,100104.69
2022-12-23T05:49:31.744Z,100118.41
2022-12-23T05:54:33.898Z,100118.16
2022-12-23T05:59:36.069Z,100125.59
2022-12-23T06:04:38.214Z,100130.72
2022-12-23T06:09:40.377Z,100136.91
2022-12-23T06:14:42.509Z,100139.94
2022-12-23T06:19:44.958Z,100125.72
2022-12-23T06:24:47.575Z,100131.31
2022-12-23T06:29:49.704Z,100138.56
2022-12-23T06:34:53.399Z,100131.81
2022-12-23T06:39:55.877Z,100126.53
2022-12-23T06:44:58.088Z,100123.31
2022-12-23T06:50:00.311Z,100147.56
2022-12-23T06:55:02.518Z,100147.44
2022-12-23T07:00:05.551Z,100142.00
2022-12-23T07:05:08.055Z,100146.63
2022-12-23T07:10:10.401Z,100161.03
2022-12-23T07:15:12.651Z,100166.69
2022-12-23T07:20:15.216Z,100195.69
2022-12-23T07:25:17.392Z,100177.00
2022-12-23T07:30:19.559Z,100192.16
2022-12-23T07:35:21.700Z,100181.84
2022-12-23T07:40:24.998Z,100167.75
2022-12-23T07:45:29.230Z,100149.31
2022-12-23T07:50:31.452Z,100162.16
2022-12-23T07:55:33.645Z,100165.87
2022-12-23T08:00:35.786Z,100168.50
2022-12-23T08:05:38.011Z,100153.34
2022-12-23T08:10:47.736Z,100157.84
2022-12-23T08:15:55.184Z,100154.41
2022-12-23T08:20:59.635Z,100143.38
2022-12-23T08:26:09.670Z,100135.84
2022-12-23T08:31:14.930Z,100125.50
2022-12-23T08:36:23.169Z,100140.84
2022-12-23T08:41:28.934Z,100153.66
2022-12-23T08:46:31.118Z,100139.41
2022-12-23T08:51:33.758Z,100134.66
2022-12-23T08:56:39.933Z,100130.72
2022-12-23T09:01:42.919Z,100097.81
2022-12-23T09:06:45.666Z,100083.97
2022-12-23T09:11:47.827Z,100089.91
2022-12-23T09:16:52.487Z,100109.16
2022-12-23T09:21:54.996Z,100123.31
2022-12-23T09:26:57.213Z,100134.28
2022-12-23T09:31:59.889Z,100133.13
2022-12-23T09:37:02.995Z,100123.62
2022-12-23T09:42:32.543Z,100106.91
2022-12-23T09:47:35.558Z,100104.28
2022-12-23T09:52:49.937Z,100087.16
2022-12-23T09:58:01.198Z,100091.97
2022-12-23T10:03:34.803Z,100118.22
2022-12-23T10:08:47.388Z,100100.34
2022-12-23T10:13:58.737Z,100085.25
2022-12-23T10:19:20.927Z,100056.94
2022-12-23T10:24:33.733Z,100055.62
2022-12-23T10:29:37.256Z,100052.12
2022-12-23T10:34:49.378Z,100061.84
2022-12-23T10:40:00.248Z,100048.66
2022-12-23T10:45:24.276Z,100036.81
2022-12-23T10:50:38.679Z,100032.59
2022-12-23T10:55:40.996Z,100034.09
2022-12-23T11:00:49.657Z,100029.31
2022-12-23T11:05:53.549Z,100037.31
2022-12-23T11:10:56.102Z,100027.25
2022-12-23T11:16:18.745Z,100039.44
2022-12-23T11:21:21.285Z,100025.47
2022-12-23T11:26:24.839Z,100029.72
2022-12-23T11:31:32.620Z,100021.53
2022-12-23T11:36:35.383Z,100020.22
2022-12-23T11:41:44.372Z,100021.13
2022-12-23T11:47:22.254Z,100033.59
2022-12-23T11:52:27.711Z,100027.28
2022-12-23T11:57:44.611Z,100026.66
2022-12-23T12:02:50.857Z,100016.09
2022-12-23T12:07:58.846Z,100043.81
2022-12-23T12:13:20.243Z,100043.28
2022-12-23T12:18:23.980Z,100043.69
2022-12-23T12:23:43.831Z,100038.59
2022-12-23T12:28:52.118Z,100038.94
2022-12-23T12:34:09.777Z,100041.56
2022-12-23T12:39:33.749Z,100037.69
2022-12-23T12:45:25.042Z,100041.00
2022-12-23T12:50:33.144Z,100040.03
2022-12-23T12:55:42.415Z,100037.31
2022-12-23T13:01:19.932Z,100043.19
2022-12-23T13:06:28.002Z,100035.06
2022-12-23T13:11:50.740Z,100032.47
2022-12-23T13:16:58.281Z,100037.69
2022-12-23T13:22:09.642Z,100045.50
2022-12-23T13:27:17.209Z,100043.75
2022-12-23T13:32:40.554Z,100041.41
2022-12-23T13:37:56.222Z,100037.16
2022-12-23T13:43:06.333Z,100042.75
2022-12-23T13:48:41.064Z,100036.84
2022-12-23T13:54:20.345Z,100057.13
2022-12-23T13:59:22.527Z,100050.50
2022-12-23T14:04:54.048Z,100041.94
2022-12-23T14:10:21.766Z,100045.09
2022-12-23T14:15:26.827Z,100040.31
2022-12-23T14:20:47.657Z,100031.41
2022-12-23T14:26:09.461Z,100053.59
2022-12-23T14:31:37.276Z,100061.47
2022-12-23T14:36:39.669Z,100054.66
2022-12-23T14:41:56.528Z,100055.19
2022-12-23T14:47:03.731Z,100059.72
2022-12-23T14:52:44.781Z,100066.34
2022-12-23T14:57:47.894Z,100067.78
2022-12-23T15:02:57.248Z,100061.28
2022-12-23T15:07:59.518Z,100068.16
2022-12-23T15:13:03.192Z,100066.34
2022-12-23T15:18:11.954Z,100076.38
2022-12-23T15:23:17.395Z,100080.87
2022-12-23T15:28:23.649Z,100103.78
2022-12-23T15:38:55.072Z,100084.94
2022-12-23T15:44:01.645Z,100074.31
2022-12-23T15:49:05.335Z,100074.91
2022-12-23T15:54:08.788Z,100074.41
2022-12-23T15:59:23.547Z,100095.56
2022-12-23T16:04:29.408Z,100092.75
2022-12-23T16:09:35.634Z,100083.06
2022-12-23T16:14:40.244Z,100076.31
2022-12-23T16:19:48.126Z,100079.84
2022-12-23T16:24:56.608Z,100083.81
2022-12-23T16:30:02.621Z,100089.09
2022-12-23T16:35:12.338Z,100060.66
2022-12-23T16:40:14.636Z,100083.56
2022-12-23T16:45:16.859Z,100065.44
2022-12-23T16:50:19.211Z,100070.03
2022-12-23T16:55:21.474Z,100071.47
2022-12-23T17:00:23.909Z,100091.84
2022-12-23T17:05:26.161Z,100075.03
2022-12-23T17:10:28.354Z,100052.81
2022-12-23T17:15:30.591Z,100057.78
2022-12-23T17:20:32.727Z,100082.66
2022-12-23T17:25:34.929Z,100052.03
2022-12-23T17:30:37.668Z,100063.75
2022-12-23T17:35:39.826Z,100066.12
2022-12-23T17:40:45.034Z,100056.84
2022-12-23T17:45:51.193Z,100049.19
2022-12-23T17:50:53.558Z,100050.91
2022-12-23T17:55:55.853Z,100052.41
2022-12-23T18:00:58.142Z,100056.81
2022-12-23T18:06:02.281Z,100061.63
2022-12-23T18:11:06.055Z,100058.69
2022-12-23T18:16:12.503Z,100057.53
2022-12-23T18:21:20.783Z,100043.84
2022-12-23T18:26:23.096Z,100056.31
2022-12-23T18:31:27.270Z,100062.31
2022-12-23T18:36:33.309Z,100037.75
2022-12-23T18:41:35.654Z,100056.44
2022-12-23T18:46:37.823Z,100041.41
2022-12-23T18:51:40.131Z,100059.84
2022-12-23T18:56:42.850Z,100071.22
2022-12-23T19:01:45.304Z,100065.13
2022-12-23T19:06:47.554Z,100060.66
2022-12-23T19:11:53.043Z,100061.09
2022-12-23T19:16:55.391Z,100066.94
2022-12-23T19:21:58.134Z,100070.78
2022-12-23T19:27:16.356Z,100081.56
2022-12-23T19:32:22.877Z,100094.91
2022-12-23T19:37:25.220Z,100094.41
2022-12-23T19:42:27.379Z,100087.97
2022-12-23T19:47:29.580Z,100083.28
2022-12-23T19:52:31.979Z,100089.41
2022-12-23T19:57:34.753Z,100091.63
2022-12-23T20:02:37.244Z,100103.97
2022-12-23T20:07:39.507Z,100115.72
2022-12-23T20:12:42.703Z,100111.09
2022-12-23T20:17:44.891Z,100104.87
2022-12-23T20:22:47.143Z,100107.69
2022-12-23T20:27:49.307Z,100112.56
2022-12-23T20:32:51.523Z,100103.34
2022-12-23T20:37:53.729Z,100096.62
2022-12-23T20:42:55.916Z,100089.66
2022-12-23T20:47:58.149Z,100082.72
2022-12-23T20:53:00.389Z,100071.53
2022-12-23T20:58:22.595Z,100051.59
2022-12-23T21:03:24.849Z,100064.50
2022-12-23T21:08:27.139Z,100067.13
2022-12-23T21:13:29.372Z,100075.00
2022-12-23T21:18:31.964Z,100069.88
2022-12-23T21:23:38.203Z,100050.16
2022-12-23T21:28:42.050Z,100045.81
2022-12-23T21:33:45.612Z,100048.81
2022-12-23T21:38:48.974Z,100048.19
2022-12-23T21:43:51.711Z,100033.75
2022-12-23T21:48:58.211Z,100003.84
2022-12-23T21:54:01.157Z,100031.03
2022-12-23T21:59:10.180Z,100028.59
2022-12-23T22:04:12.481Z,100010.97
2022-12-23T22:09:19.583Z,100017.25
2022-12-23T22:14:21.898Z,99992.19
2022-12-23T22:19:24.072Z,99970.56
2022-12-23T22:24:26.537Z,99950.56
2022-12-23T22:29:28.829Z,99947.19
2022-12-23T22:34:31.034Z,99950.44
2022-12-23T22:39:33.224Z,99951.28
2022-12-23T22:44:35.477Z,99950.66
2022-12-23T22:49:37.741Z,99929.59
2022-12-23T22:54:39.964Z,99926.13
2022-12-23T22:59:42.097Z,99927.34
2022-12-23T23:04:44.253Z,99924.91
2022-12-23T23:09:46.464Z,99918.44
2022-12-23T23:14:54.414Z,99915.81
2022-12-23T23:19:56.590Z,99927.63
2022-12-23T23:24:58.768Z,99927.38
2022-12-23T23:30:00.938Z,99950.66
2022-12-23T23:35:08.845Z,99939.09
2022-12-23T23:40:13.174Z,99952.88
2022-12-23T23:45:15.568Z,99943.75
2022-12-23T23:50:17.962Z,99932.78
2022-12-23T23:55:20.172Z,99918.28
